sensor_id;sensor_type;location;lat;lon;timestamp;P1;durP1;ratioP1;P2;durP2;ratioP2
4821;SDS011;2425;47.794;13.068;2024-03-25T00:00:13;2.77;;;1.00;;
4821;SDS011;2425;47.794;13.068;2024-03-25T00:02:40;0.87;;;0.87;;
4821;SDS011;2425;47.794;13.068;2024-03-25T00:05:07;1.83;;;0.80;;
4821;SDS011;2425;47.794;13.068;2024-03-25T00:07:36;2.00;;;0.90;;
4821;SDS011;2425;47.794;13.068;2024-03-25T00:10:01;3.17;;;0.87;;
4821;SDS011;2425;47.794;13.068;2024-03-25T00:12:28;1.73;;;0.80;;
4821;SDS011;2425;47.794;13.068;2024-03-25T00:14:54;1.57;;;0.97;;
4821;SDS011;2425;47.794;13.068;2024-03-25T00:17:22;1.10;;;1.07;;
4821;SDS011;2425;47.794;13.068;2024-03-25T00:19:48;0.80;;;0.80;;
4821;SDS011;2425;47.794;13.068;2024-03-25T00:22:17;0.70;;;0.70;;
4821;SDS011;2425;47.794;13.068;2024-03-25T00:24:43;0.90;;;0.90;;
4821;SDS011;2425;47.794;13.068;2024-03-25T00:27:09;0.93;;;0.90;;
4821;SDS011;2425;47.794;13.068;2024-03-25T00:29:35;1.57;;;0.80;;
4821;SDS011;2425;47.794;13.068;2024-03-25T00:32:02;1.70;;;0.90;;
4821;SDS011;2425;47.794;13.068;2024-03-25T00:34:29;2.53;;;0.60;;
4821;SDS011;2425;47.794;13.068;2024-03-25T00:36:57;1.17;;;0.97;;
4821;SDS011;2425;47.794;13.068;2024-03-25T00:39:23;2.50;;;0.70;;
4821;SDS011;2425;47.794;13.068;2024-03-25T00:41:50;1.70;;;0.77;;
4821;SDS011;2425;47.794;13.068;2024-03-25T00:44:16;1.03;;;0.77;;
4821;SDS011;2425;47.794;13.068;2024-03-25T00:46:43;1.33;;;1.00;;
4821;SDS011;2425;47.794;13.068;2024-03-25T00:49:09;0.70;;;0.70;;
4821;SDS011;2425;47.794;13.068;2024-03-25T00:51:37;0.87;;;0.83;;
4821;SDS011;2425;47.794;13.068;2024-03-25T00:54:03;2.60;;;0.83;;
4821;SDS011;2425;47.794;13.068;2024-03-25T00:56:30;0.83;;;0.80;;
4821;SDS011;2425;47.794;13.068;2024-03-25T00:58:55;0.60;;;0.60;;
4821;SDS011;2425;47.794;13.068;2024-03-25T01:01:27;0.70;;;0.70;;
4821;SDS011;2425;47.794;13.068;2024-03-25T01:03:53;1.03;;;0.60;;
4821;SDS011;2425;47.794;13.068;2024-03-25T01:06:19;1.33;;;0.73;;
4821;SDS011;2425;47.794;13.068;2024-03-25T01:08:46;0.63;;;0.63;;
4821;SDS011;2425;47.794;13.068;2024-03-25T01:11:13;1.20;;;1.00;;
4821;SDS011;2425;47.794;13.068;2024-03-25T01:13:39;0.83;;;0.80;;
4821;SDS011;2425;47.794;13.068;2024-03-25T01:16:06;0.90;;;0.90;;
4821;SDS011;2425;47.794;13.068;2024-03-25T01:18:32;0.77;;;0.77;;
4821;SDS011;2425;47.794;13.068;2024-03-25T01:20:59;1.13;;;0.70;;
4821;SDS011;2425;47.794;13.068;2024-03-25T01:23:26;0.73;;;0.73;;
4821;SDS011;2425;47.794;13.068;2024-03-25T01:25:53;0.77;;;0.70;;
4821;SDS011;2425;47.794;13.068;2024-03-25T01:28:19;0.80;;;0.80;;
4821;SDS011;2425;47.794;13.068;2024-03-25T01:30:45;0.60;;;0.60;;
4821;SDS011;2425;47.794;13.068;2024-03-25T01:33:12;1.97;;;0.90;;
4821;SDS011;2425;47.794;13.068;2024-03-25T01:35:38;0.60;;;0.60;;
4821;SDS011;2425;47.794;13.068;2024-03-25T01:38:05;0.80;;;0.80;;
4821;SDS011;2425;47.794;13.068;2024-03-25T01:40:30;0.73;;;0.73;;
4821;SDS011;2425;47.794;13.068;2024-03-25T01:42:59;0.70;;;0.53;;
4821;SDS011;2425;47.794;13.068;2024-03-25T01:45:27;0.60;;;0.60;;
4821;SDS011;2425;47.794;13.068;2024-03-25T01:47:55;1.90;;;0.67;;
4821;SDS011;2425;47.794;13.068;2024-03-25T01:50:22;1.17;;;0.87;;
4821;SDS011;2425;47.794;13.068;2024-03-25T01:52:49;1.13;;;0.70;;
4821;SDS011;2425;47.794;13.068;2024-03-25T01:55:15;0.90;;;0.80;;
4821;SDS011;2425;47.794;13.068;2024-03-25T01:57:44;0.97;;;0.87;;
4821;SDS011;2425;47.794;13.068;2024-03-25T02:00:12;0.83;;;0.73;;
4821;SDS011;2425;47.794;13.068;2024-03-25T02:02:41;1.30;;;0.50;;
4821;SDS011;2425;47.794;13.068;2024-03-25T02:05:09;3.50;;;1.00;;
4821;SDS011;2425;47.794;13.068;2024-03-25T02:07:35;0.80;;;0.80;;
4821;SDS011;2425;47.794;13.068;2024-03-25T02:10:02;1.23;;;0.60;;
4821;SDS011;2425;47.794;13.068;2024-03-25T02:12:29;0.67;;;0.67;;
4821;SDS011;2425;47.794;13.068;2024-03-25T02:14:55;2.80;;;0.77;;
4821;SDS011;2425;47.794;13.068;2024-03-25T02:17:23;0.80;;;0.80;;
4821;SDS011;2425;47.794;13.068;2024-03-25T02:19:49;0.70;;;0.70;;
4821;SDS011;2425;47.794;13.068;2024-03-25T02:22:16;0.63;;;0.63;;
4821;SDS011;2425;47.794;13.068;2024-03-25T02:24:42;1.10;;;0.60;;
4821;SDS011;2425;47.794;13.068;2024-03-25T02:27:13;0.87;;;0.60;;
4821;SDS011;2425;47.794;13.068;2024-03-25T02:29:39;0.50;;;0.50;;
4821;SDS011;2425;47.794;13.068;2024-03-25T02:32:06;1.23;;;0.70;;
4821;SDS011;2425;47.794;13.068;2024-03-25T02:34:35;0.60;;;0.60;;
4821;SDS011;2425;47.794;13.068;2024-03-25T02:37:02;0.50;;;0.50;;
4821;SDS011;2425;47.794;13.068;2024-03-25T02:39:28;0.57;;;0.57;;
4821;SDS011;2425;47.794;13.068;2024-03-25T02:41:55;1.00;;;0.60;;
4821;SDS011;2425;47.794;13.068;2024-03-25T02:44:22;0.80;;;0.60;;
4821;SDS011;2425;47.794;13.068;2024-03-25T02:46:49;0.57;;;0.57;;
4821;SDS011;2425;47.794;13.068;2024-03-25T02:49:15;0.63;;;0.50;;
4821;SDS011;2425;47.794;13.068;2024-03-25T02:51:42;0.50;;;0.50;;
4821;SDS011;2425;47.794;13.068;2024-03-25T02:54:07;0.77;;;0.60;;
4821;SDS011;2425;47.794;13.068;2024-03-25T02:56:34;0.80;;;0.60;;
4821;SDS011;2425;47.794;13.068;2024-03-25T02:59:00;0.63;;;0.63;;
4821;SDS011;2425;47.794;13.068;2024-03-25T03:01:28;0.50;;;0.50;;
4821;SDS011;2425;47.794;13.068;2024-03-25T03:03:54;0.40;;;0.40;;
4821;SDS011;2425;47.794;13.068;2024-03-25T03:06:21;0.50;;;0.50;;
4821;SDS011;2425;47.794;13.068;2024-03-25T03:08:47;0.67;;;0.50;;
4821;SDS011;2425;47.794;13.068;2024-03-25T03:11:14;0.63;;;0.60;;
4821;SDS011;2425;47.794;13.068;2024-03-25T03:13:40;0.60;;;0.60;;
4821;SDS011;2425;47.794;13.068;2024-03-25T03:16:06;2.37;;;0.70;;
4821;SDS011;2425;47.794;13.068;2024-03-25T03:18:34;0.53;;;0.53;;
4821;SDS011;2425;47.794;13.068;2024-03-25T03:21:01;1.23;;;0.60;;
4821;SDS011;2425;47.794;13.068;2024-03-25T03:23:26;0.90;;;0.40;;
4821;SDS011;2425;47.794;13.068;2024-03-25T03:25:53;0.57;;;0.50;;
4821;SDS011;2425;47.794;13.068;2024-03-25T03:28:19;0.60;;;0.60;;
4821;SDS011;2425;47.794;13.068;2024-03-25T03:30:46;0.50;;;0.50;;
4821;SDS011;2425;47.794;13.068;2024-03-25T03:33:11;0.47;;;0.47;;
4821;SDS011;2425;47.794;13.068;2024-03-25T03:35:39;0.73;;;0.70;;
4821;SDS011;2425;47.794;13.068;2024-03-25T03:38:05;0.40;;;0.40;;
4821;SDS011;2425;47.794;13.068;2024-03-25T03:40:33;0.50;;;0.50;;
4821;SDS011;2425;47.794;13.068;2024-03-25T03:43:00;0.60;;;0.60;;
4821;SDS011;2425;47.794;13.068;2024-03-25T03:45:26;0.70;;;0.70;;
4821;SDS011;2425;47.794;13.068;2024-03-25T03:47:53;0.50;;;0.50;;
4821;SDS011;2425;47.794;13.068;2024-03-25T03:50:18;0.80;;;0.73;;
4821;SDS011;2425;47.794;13.068;2024-03-25T03:52:46;0.50;;;0.50;;
4821;SDS011;2425;47.794;13.068;2024-03-25T03:55:12;0.60;;;0.60;;
4821;SDS011;2425;47.794;13.068;2024-03-25T03:57:39;0.43;;;0.43;;
4821;SDS011;2425;47.794;13.068;2024-03-25T04:00:05;0.80;;;0.70;;
4821;SDS011;2425;47.794;13.068;2024-03-25T04:02:34;0.90;;;0.50;;
4821;SDS011;2425;47.794;13.068;2024-03-25T04:04:59;0.60;;;0.60;;
4821;SDS011;2425;47.794;13.068;2024-03-25T04:07:27;0.50;;;0.50;;
4821;SDS011;2425;47.794;13.068;2024-03-25T04:09:55;0.50;;;0.50;;
4821;SDS011;2425;47.794;13.068;2024-03-25T04:12:24;0.60;;;0.60;;
4821;SDS011;2425;47.794;13.068;2024-03-25T04:14:49;0.57;;;0.57;;
4821;SDS011;2425;47.794;13.068;2024-03-25T04:17:20;0.40;;;0.40;;
4821;SDS011;2425;47.794;13.068;2024-03-25T04:19:46;0.50;;;0.50;;
4821;SDS011;2425;47.794;13.068;2024-03-25T04:22:13;0.40;;;0.40;;
4821;SDS011;2425;47.794;13.068;2024-03-25T04:24:39;0.40;;;0.40;;
4821;SDS011;2425;47.794;13.068;2024-03-25T04:27:07;0.40;;;0.40;;
4821;SDS011;2425;47.794;13.068;2024-03-25T04:29:33;1.33;;;0.43;;
4821;SDS011;2425;47.794;13.068;2024-03-25T04:31:59;0.50;;;0.50;;
4821;SDS011;2425;47.794;13.068;2024-03-25T04:34:25;0.40;;;0.40;;
4821;SDS011;2425;47.794;13.068;2024-03-25T04:36:52;0.40;;;0.40;;
4821;SDS011;2425;47.794;13.068;2024-03-25T04:39:18;0.50;;;0.50;;
4821;SDS011;2425;47.794;13.068;2024-03-25T04:41:44;0.40;;;0.40;;
4821;SDS011;2425;47.794;13.068;2024-03-25T04:44:11;0.70;;;0.40;;
4821;SDS011;2425;47.794;13.068;2024-03-25T04:46:37;0.60;;;0.60;;
4821;SDS011;2425;47.794;13.068;2024-03-25T04:49:03;1.47;;;0.40;;
4821;SDS011;2425;47.794;13.068;2024-03-25T04:51:28;1.03;;;0.50;;
4821;SDS011;2425;47.794;13.068;2024-03-25T04:53:54;0.70;;;0.70;;
4821;SDS011;2425;47.794;13.068;2024-03-25T04:56:20;0.50;;;0.50;;
4821;SDS011;2425;47.794;13.068;2024-03-25T04:58:46;0.50;;;0.50;;
4821;SDS011;2425;47.794;13.068;2024-03-25T05:01:13;0.60;;;0.60;;
4821;SDS011;2425;47.794;13.068;2024-03-25T05:03:39;0.73;;;0.57;;
4821;SDS011;2425;47.794;13.068;2024-03-25T05:06:04;0.40;;;0.40;;
4821;SDS011;2425;47.794;13.068;2024-03-25T05:08:30;1.37;;;0.50;;
4821;SDS011;2425;47.794;13.068;2024-03-25T05:10:56;0.50;;;0.40;;
4821;SDS011;2425;47.794;13.068;2024-03-25T05:13:22;0.47;;;0.47;;
4821;SDS011;2425;47.794;13.068;2024-03-25T05:15:50;0.50;;;0.50;;
4821;SDS011;2425;47.794;13.068;2024-03-25T05:18:18;0.40;;;0.40;;
4821;SDS011;2425;47.794;13.068;2024-03-25T05:20:44;0.40;;;0.40;;
4821;SDS011;2425;47.794;13.068;2024-03-25T05:23:09;0.50;;;0.50;;
4821;SDS011;2425;47.794;13.068;2024-03-25T05:25:35;0.37;;;0.37;;
4821;SDS011;2425;47.794;13.068;2024-03-25T05:28:01;0.40;;;0.40;;
4821;SDS011;2425;47.794;13.068;2024-03-25T05:30:27;0.50;;;0.50;;
4821;SDS011;2425;47.794;13.068;2024-03-25T05:32:53;0.60;;;0.60;;
4821;SDS011;2425;47.794;13.068;2024-03-25T05:35:20;0.40;;;0.40;;
4821;SDS011;2425;47.794;13.068;2024-03-25T05:37:46;0.50;;;0.50;;
4821;SDS011;2425;47.794;13.068;2024-03-25T05:40:12;0.73;;;0.47;;
4821;SDS011;2425;47.794;13.068;2024-03-25T05:42:38;1.03;;;0.40;;
4821;SDS011;2425;47.794;13.068;2024-03-25T05:45:04;0.40;;;0.40;;
4821;SDS011;2425;47.794;13.068;2024-03-25T05:47:30;0.50;;;0.50;;
4821;SDS011;2425;47.794;13.068;2024-03-25T05:49:56;0.60;;;0.40;;
4821;SDS011;2425;47.794;13.068;2024-03-25T05:52:23;0.40;;;0.40;;
4821;SDS011;2425;47.794;13.068;2024-03-25T05:54:49;0.40;;;0.40;;
4821;SDS011;2425;47.794;13.068;2024-03-25T05:57:15;0.40;;;0.40;;
4821;SDS011;2425;47.794;13.068;2024-03-25T05:59:41;0.50;;;0.50;;
4821;SDS011;2425;47.794;13.068;2024-03-25T06:02:07;0.60;;;0.60;;
4821;SDS011;2425;47.794;13.068;2024-03-25T06:04:33;0.50;;;0.50;;
4821;SDS011;2425;47.794;13.068;2024-03-25T06:06:58;0.90;;;0.57;;
4821;SDS011;2425;47.794;13.068;2024-03-25T06:09:26;0.47;;;0.47;;
4821;SDS011;2425;47.794;13.068;2024-03-25T06:11:52;0.50;;;0.50;;
4821;SDS011;2425;47.794;13.068;2024-03-25T06:14:17;0.40;;;0.40;;
4821;SDS011;2425;47.794;13.068;2024-03-25T06:16:43;0.50;;;0.50;;
4821;SDS011;2425;47.794;13.068;2024-03-25T06:19:09;0.40;;;0.40;;
4821;SDS011;2425;47.794;13.068;2024-03-25T06:21:35;0.40;;;0.40;;
4821;SDS011;2425;47.794;13.068;2024-03-25T06:24:01;0.67;;;0.50;;
4821;SDS011;2425;47.794;13.068;2024-03-25T06:26:28;1.23;;;0.50;;
4821;SDS011;2425;47.794;13.068;2024-03-25T06:28:54;0.50;;;0.50;;
4821;SDS011;2425;47.794;13.068;2024-03-25T06:31:19;0.97;;;0.60;;
4821;SDS011;2425;47.794;13.068;2024-03-25T06:34:03;1.53;;;0.50;;
4821;SDS011;2425;47.794;13.068;2024-03-25T06:36:42;0.43;;;0.43;;
4821;SDS011;2425;47.794;13.068;2024-03-25T06:39:08;0.50;;;0.50;;
4821;SDS011;2425;47.794;13.068;2024-03-25T06:41:36;0.40;;;0.40;;
4821;SDS011;2425;47.794;13.068;2024-03-25T06:44:01;0.63;;;0.43;;
4821;SDS011;2425;47.794;13.068;2024-03-25T06:46:27;1.97;;;0.70;;
4821;SDS011;2425;47.794;13.068;2024-03-25T06:48:53;0.53;;;0.53;;
4821;SDS011;2425;47.794;13.068;2024-03-25T06:51:19;5.10;;;1.00;;
4821;SDS011;2425;47.794;13.068;2024-03-25T06:53:44;30.13;;;5.00;;
4821;SDS011;2425;47.794;13.068;2024-03-25T06:56:10;47.50;;;9.90;;
4821;SDS011;2425;47.794;13.068;2024-03-25T06:58:37;49.20;;;7.77;;
4821;SDS011;2425;47.794;13.068;2024-03-25T07:01:04;49.77;;;8.23;;
4821;SDS011;2425;47.794;13.068;2024-03-25T07:03:30;47.73;;;9.20;;
4821;SDS011;2425;47.794;13.068;2024-03-25T07:05:56;68.83;;;35.27;;
4821;SDS011;2425;47.794;13.068;2024-03-25T07:08:22;26.90;;;9.60;;
4821;SDS011;2425;47.794;13.068;2024-03-25T07:10:47;28.43;;;6.60;;
4821;SDS011;2425;47.794;13.068;2024-03-25T07:13:13;31.60;;;7.10;;
4821;SDS011;2425;47.794;13.068;2024-03-25T07:15:42;20.50;;;5.80;;
4821;SDS011;2425;47.794;13.068;2024-03-25T07:18:08;24.70;;;5.83;;
4821;SDS011;2425;47.794;13.068;2024-03-25T07:20:35;32.37;;;6.03;;
4821;SDS011;2425;47.794;13.068;2024-03-25T07:23:00;25.70;;;6.40;;
4821;SDS011;2425;47.794;13.068;2024-03-25T07:25:26;31.63;;;6.10;;
4821;SDS011;2425;47.794;13.068;2024-03-25T07:27:52;25.57;;;5.70;;
4821;SDS011;2425;47.794;13.068;2024-03-25T07:30:18;14.20;;;4.50;;
4821;SDS011;2425;47.794;13.068;2024-03-25T07:32:45;28.60;;;5.13;;
4821;SDS011;2425;47.794;13.068;2024-03-25T07:35:11;17.63;;;4.53;;
4821;SDS011;2425;47.794;13.068;2024-03-25T07:37:37;27.47;;;5.43;;
4821;SDS011;2425;47.794;13.068;2024-03-25T07:40:03;26.53;;;5.33;;
4821;SDS011;2425;47.794;13.068;2024-03-25T07:42:29;10.50;;;3.23;;
4821;SDS011;2425;47.794;13.068;2024-03-25T07:44:55;18.97;;;4.87;;
4821;SDS011;2425;47.794;13.068;2024-03-25T07:47:20;22.00;;;12.80;;
4821;SDS011;2425;47.794;13.068;2024-03-25T07:49:47;16.70;;;6.60;;
4821;SDS011;2425;47.794;13.068;2024-03-25T07:52:13;21.00;;;4.53;;
4821;SDS011;2425;47.794;13.068;2024-03-25T07:54:39;16.20;;;5.30;;
4821;SDS011;2425;47.794;13.068;2024-03-25T07:57:05;20.80;;;4.83;;
4821;SDS011;2425;47.794;13.068;2024-03-25T07:59:30;19.83;;;4.70;;
4821;SDS011;2425;47.794;13.068;2024-03-25T08:01:56;8.77;;;4.70;;
4821;SDS011;2425;47.794;13.068;2024-03-25T08:04:22;14.13;;;5.00;;
4821;SDS011;2425;47.794;13.068;2024-03-25T08:06:49;10.83;;;3.80;;
4821;SDS011;2425;47.794;13.068;2024-03-25T08:09:15;19.40;;;4.37;;
4821;SDS011;2425;47.794;13.068;2024-03-25T08:11:40;16.27;;;4.53;;
4821;SDS011;2425;47.794;13.068;2024-03-25T08:14:06;11.73;;;3.60;;
4821;SDS011;2425;47.794;13.068;2024-03-25T08:16:32;29.23;;;3.70;;
4821;SDS011;2425;47.794;13.068;2024-03-25T08:18:58;11.00;;;3.67;;
4821;SDS011;2425;47.794;13.068;2024-03-25T08:21:24;9.27;;;3.40;;
4821;SDS011;2425;47.794;13.068;2024-03-25T08:23:51;13.67;;;3.50;;
4821;SDS011;2425;47.794;13.068;2024-03-25T08:26:16;9.40;;;3.00;;
4821;SDS011;2425;47.794;13.068;2024-03-25T08:28:42;8.00;;;3.97;;
4821;SDS011;2425;47.794;13.068;2024-03-25T08:31:08;6.90;;;3.20;;
4821;SDS011;2425;47.794;13.068;2024-03-25T08:33:34;9.30;;;2.60;;
4821;SDS011;2425;47.794;13.068;2024-03-25T08:36:00;8.00;;;2.93;;
4821;SDS011;2425;47.794;13.068;2024-03-25T08:38:25;9.30;;;2.47;;
4821;SDS011;2425;47.794;13.068;2024-03-25T08:40:52;20.43;;;2.30;;
4821;SDS011;2425;47.794;13.068;2024-03-25T08:43:18;6.50;;;2.30;;
4821;SDS011;2425;47.794;13.068;2024-03-25T08:45:44;4.87;;;2.30;;
4821;SDS011;2425;47.794;13.068;2024-03-25T08:48:10;57.83;;;41.80;;
4821;SDS011;2425;47.794;13.068;2024-03-25T08:50:36;16.03;;;10.10;;
4821;SDS011;2425;47.794;13.068;2024-03-25T08:53:02;11.70;;;7.30;;
4821;SDS011;2425;47.794;13.068;2024-03-25T08:55:28;9.83;;;6.27;;
4821;SDS011;2425;47.794;13.068;2024-03-25T08:57:55;14.13;;;7.00;;
4821;SDS011;2425;47.794;13.068;2024-03-25T09:00:21;16.17;;;6.97;;
4821;SDS011;2425;47.794;13.068;2024-03-25T09:02:47;17.03;;;5.80;;
4821;SDS011;2425;47.794;13.068;2024-03-25T09:05:13;11.50;;;6.73;;
4821;SDS011;2425;47.794;13.068;2024-03-25T09:07:39;9.90;;;5.60;;
4821;SDS011;2425;47.794;13.068;2024-03-25T09:10:05;8.33;;;6.20;;
4821;SDS011;2425;47.794;13.068;2024-03-25T09:12:49;9.07;;;6.33;;
4821;SDS011;2425;47.794;13.068;2024-03-25T09:15:16;7.80;;;5.40;;
4821;SDS011;2425;47.794;13.068;2024-03-25T09:17:42;8.13;;;3.97;;
4821;SDS011;2425;47.794;13.068;2024-03-25T09:20:08;6.97;;;4.30;;
4821;SDS011;2425;47.794;13.068;2024-03-25T09:22:35;9.53;;;4.40;;
4821;SDS011;2425;47.794;13.068;2024-03-25T09:25:01;10.10;;;4.93;;
4821;SDS011;2425;47.794;13.068;2024-03-25T09:27:27;14.37;;;5.43;;
4821;SDS011;2425;47.794;13.068;2024-03-25T09:29:52;13.20;;;4.63;;
4821;SDS011;2425;47.794;13.068;2024-03-25T09:32:21;18.20;;;5.40;;
4821;SDS011;2425;47.794;13.068;2024-03-25T09:34:46;7.80;;;4.60;;
4821;SDS011;2425;47.794;13.068;2024-03-25T09:37:12;12.77;;;4.43;;
4821;SDS011;2425;47.794;13.068;2024-03-25T09:39:38;3.40;;;3.03;;
4821;SDS011;2425;47.794;13.068;2024-03-25T09:42:04;10.70;;;2.63;;
4821;SDS011;2425;47.794;13.068;2024-03-25T09:44:33;3.83;;;2.80;;
4821;SDS011;2425;47.794;13.068;2024-03-25T09:47:00;12.43;;;3.80;;
4821;SDS011;2425;47.794;13.068;2024-03-25T09:49:28;9.80;;;3.67;;
4821;SDS011;2425;47.794;13.068;2024-03-25T09:51:54;8.33;;;3.40;;
4821;SDS011;2425;47.794;13.068;2024-03-25T09:54:20;12.23;;;3.03;;
4821;SDS011;2425;47.794;13.068;2024-03-25T09:56:45;10.60;;;3.50;;
4821;SDS011;2425;47.794;13.068;2024-03-25T09:59:12;9.10;;;2.87;;
4821;SDS011;2425;47.794;13.068;2024-03-25T10:01:38;4.47;;;3.20;;
4821;SDS011;2425;47.794;13.068;2024-03-25T10:04:04;8.07;;;3.00;;
4821;SDS011;2425;47.794;13.068;2024-03-25T10:06:31;11.53;;;3.23;;
4821;SDS011;2425;47.794;13.068;2024-03-25T10:08:57;12.00;;;3.10;;
4821;SDS011;2425;47.794;13.068;2024-03-25T10:11:23;9.63;;;3.47;;
4821;SDS011;2425;47.794;13.068;2024-03-25T10:13:49;14.73;;;3.00;;
4821;SDS011;2425;47.794;13.068;2024-03-25T10:16:15;5.63;;;2.93;;
4821;SDS011;2425;47.794;13.068;2024-03-25T10:18:40;56.57;;;43.50;;
4821;SDS011;2425;47.794;13.068;2024-03-25T10:21:09;26.03;;;16.97;;
4821;SDS011;2425;47.794;13.068;2024-03-25T10:23:39;14.90;;;11.73;;
4821;SDS011;2425;47.794;13.068;2024-03-25T10:26:05;21.87;;;11.60;;
4821;SDS011;2425;47.794;13.068;2024-03-25T10:28:31;20.30;;;10.70;;
4821;SDS011;2425;47.794;13.068;2024-03-25T10:31:02;26.03;;;11.57;;
4821;SDS011;2425;47.794;13.068;2024-03-25T10:33:29;14.07;;;9.20;;
4821;SDS011;2425;47.794;13.068;2024-03-25T10:35:54;11.50;;;9.50;;
4821;SDS011;2425;47.794;13.068;2024-03-25T10:38:22;8.07;;;6.30;;
4821;SDS011;2425;47.794;13.068;2024-03-25T10:40:51;7.03;;;4.03;;
4821;SDS011;2425;47.794;13.068;2024-03-25T10:43:20;9.00;;;3.10;;
4821;SDS011;2425;47.794;13.068;2024-03-25T10:45:47;5.10;;;3.20;;
4821;SDS011;2425;47.794;13.068;2024-03-25T10:48:15;9.10;;;4.40;;
4821;SDS011;2425;47.794;13.068;2024-03-25T10:50:43;5.30;;;4.57;;
4821;SDS011;2425;47.794;13.068;2024-03-25T10:53:09;6.40;;;4.67;;
4821;SDS011;2425;47.794;13.068;2024-03-25T10:55:36;11.43;;;5.17;;
4821;SDS011;2425;47.794;13.068;2024-03-25T10:58:04;12.20;;;5.13;;
4821;SDS011;2425;47.794;13.068;2024-03-25T11:00:30;6.60;;;4.50;;
4821;SDS011;2425;47.794;13.068;2024-03-25T11:02:56;11.50;;;4.57;;
4821;SDS011;2425;47.794;13.068;2024-03-25T11:05:22;11.90;;;4.30;;
4821;SDS011;2425;47.794;13.068;2024-03-25T11:07:48;8.53;;;4.37;;
4821;SDS011;2425;47.794;13.068;2024-03-25T11:10:14;13.90;;;10.37;;
4821;SDS011;2425;47.794;13.068;2024-03-25T11:12:41;73.13;;;56.80;;
4821;SDS011;2425;47.794;13.068;2024-03-25T11:15:09;88.37;;;74.93;;
4821;SDS011;2425;47.794;13.068;2024-03-25T11:17:35;18.67;;;16.00;;
4821;SDS011;2425;47.794;13.068;2024-03-25T11:20:09;7.27;;;6.20;;
4821;SDS011;2425;47.794;13.068;2024-03-25T11:22:35;6.73;;;6.10;;
4821;SDS011;2425;47.794;13.068;2024-03-25T11:25:07;8.30;;;7.50;;
4821;SDS011;2425;47.794;13.068;2024-03-25T11:27:36;9.03;;;8.03;;
4821;SDS011;2425;47.794;13.068;2024-03-25T11:30:02;8.47;;;7.50;;
4821;SDS011;2425;47.794;13.068;2024-03-25T11:32:29;8.93;;;8.13;;
4821;SDS011;2425;47.794;13.068;2024-03-25T11:34:55;11.87;;;8.47;;
4821;SDS011;2425;47.794;13.068;2024-03-25T11:37:21;5.70;;;5.20;;
4821;SDS011;2425;47.794;13.068;2024-03-25T11:39:47;9.53;;;7.60;;
4821;SDS011;2425;47.794;13.068;2024-03-25T11:42:12;9.30;;;7.67;;
4821;SDS011;2425;47.794;13.068;2024-03-25T11:44:38;7.47;;;6.50;;
4821;SDS011;2425;47.794;13.068;2024-03-25T11:47:05;8.30;;;7.50;;
4821;SDS011;2425;47.794;13.068;2024-03-25T11:49:32;7.80;;;7.00;;
4821;SDS011;2425;47.794;13.068;2024-03-25T11:51:58;9.60;;;7.00;;
4821;SDS011;2425;47.794;13.068;2024-03-25T11:54:26;9.30;;;6.40;;
4821;SDS011;2425;47.794;13.068;2024-03-25T11:56:52;7.10;;;6.40;;
4821;SDS011;2425;47.794;13.068;2024-03-25T11:59:19;8.40;;;6.43;;
4821;SDS011;2425;47.794;13.068;2024-03-25T12:01:44;7.60;;;6.33;;
4821;SDS011;2425;47.794;13.068;2024-03-25T12:04:10;8.30;;;6.70;;
4821;SDS011;2425;47.794;13.068;2024-03-25T12:06:38;10.27;;;5.60;;
4821;SDS011;2425;47.794;13.068;2024-03-25T12:09:04;3.80;;;3.50;;
4821;SDS011;2425;47.794;13.068;2024-03-25T12:11:48;4.23;;;3.93;;
4821;SDS011;2425;47.794;13.068;2024-03-25T12:14:13;7.97;;;3.10;;
4821;SDS011;2425;47.794;13.068;2024-03-25T12:16:40;4.53;;;3.60;;
4821;SDS011;2425;47.794;13.068;2024-03-25T12:23:39;4.03;;;3.67;;
4821;SDS011;2425;47.794;13.068;2024-03-25T12:26:07;6.63;;;3.67;;
4821;SDS011;2425;47.794;13.068;2024-03-25T12:28:33;6.80;;;4.07;;
4821;SDS011;2425;47.794;13.068;2024-03-25T12:30:59;6.07;;;3.50;;
4821;SDS011;2425;47.794;13.068;2024-03-25T12:33:25;3.37;;;3.17;;
4821;SDS011;2425;47.794;13.068;2024-03-25T12:35:51;5.33;;;3.43;;
4821;SDS011;2425;47.794;13.068;2024-03-25T12:38:24;11.03;;;4.33;;
4821;SDS011;2425;47.794;13.068;2024-03-25T12:40:51;3.80;;;3.40;;
4821;SDS011;2425;47.794;13.068;2024-03-25T12:43:18;4.80;;;3.27;;
4821;SDS011;2425;47.794;13.068;2024-03-25T12:45:44;6.30;;;4.10;;
4821;SDS011;2425;47.794;13.068;2024-03-25T12:48:10;3.40;;;3.10;;
4821;SDS011;2425;47.794;13.068;2024-03-25T12:50:37;4.17;;;3.07;;
4821;SDS011;2425;47.794;13.068;2024-03-25T12:53:03;3.70;;;2.77;;
4821;SDS011;2425;47.794;13.068;2024-03-25T12:55:29;6.57;;;2.47;;
4821;SDS011;2425;47.794;13.068;2024-03-25T12:57:56;8.83;;;5.90;;
4821;SDS011;2425;47.794;13.068;2024-03-25T13:00:22;11.50;;;6.57;;
4821;SDS011;2425;47.794;13.068;2024-03-25T13:02:48;4.53;;;3.80;;
4821;SDS011;2425;47.794;13.068;2024-03-25T13:09:10;10.23;;;2.83;;
4821;SDS011;2425;47.794;13.068;2024-03-25T13:11:36;3.27;;;2.93;;
4821;SDS011;2425;47.794;13.068;2024-03-25T13:14:02;5.93;;;2.87;;
4821;SDS011;2425;47.794;13.068;2024-03-25T13:16:28;3.20;;;3.00;;
4821;SDS011;2425;47.794;13.068;2024-03-25T13:18:54;5.97;;;2.50;;
4821;SDS011;2425;47.794;13.068;2024-03-25T13:21:20;6.13;;;2.77;;
4821;SDS011;2425;47.794;13.068;2024-03-25T13:23:45;3.80;;;2.40;;
4821;SDS011;2425;47.794;13.068;2024-03-25T13:26:13;5.53;;;3.33;;
4821;SDS011;2425;47.794;13.068;2024-03-25T13:28:38;3.00;;;2.80;;
4821;SDS011;2425;47.794;13.068;2024-03-25T13:31:04;3.57;;;3.00;;
4821;SDS011;2425;47.794;13.068;2024-03-25T13:33:30;4.63;;;3.20;;
4821;SDS011;2425;47.794;13.068;2024-03-25T13:35:56;5.20;;;2.57;;
4821;SDS011;2425;47.794;13.068;2024-03-25T13:38:21;8.97;;;2.93;;
4821;SDS011;2425;47.794;13.068;2024-03-25T13:40:47;4.30;;;3.60;;
4821;SDS011;2425;47.794;13.068;2024-03-25T13:43:14;7.23;;;3.27;;
4821;SDS011;2425;47.794;13.068;2024-03-25T13:45:46;13.50;;;3.20;;
4821;SDS011;2425;47.794;13.068;2024-03-25T13:48:13;3.10;;;2.90;;
4821;SDS011;2425;47.794;13.068;2024-03-25T13:50:39;12.90;;;3.10;;
4821;SDS011;2425;47.794;13.068;2024-03-25T13:53:04;3.27;;;3.07;;
4821;SDS011;2425;47.794;13.068;2024-03-25T13:55:30;4.47;;;3.20;;
4821;SDS011;2425;47.794;13.068;2024-03-25T13:57:56;3.10;;;2.80;;
4821;SDS011;2425;47.794;13.068;2024-03-25T14:00:23;2.80;;;2.60;;
4821;SDS011;2425;47.794;13.068;2024-03-25T14:02:49;6.43;;;2.70;;
4821;SDS011;2425;47.794;13.068;2024-03-25T14:05:14;3.03;;;2.83;;
4821;SDS011;2425;47.794;13.068;2024-03-25T14:07:40;2.97;;;2.77;;
4821;SDS011;2425;47.794;13.068;2024-03-25T14:10:06;2.80;;;2.60;;
4821;SDS011;2425;47.794;13.068;2024-03-25T14:12:32;2.53;;;2.33;;
4821;SDS011;2425;47.794;13.068;2024-03-25T14:14:58;3.33;;;2.80;;
4821;SDS011;2425;47.794;13.068;2024-03-25T14:17:25;3.30;;;3.00;;
4821;SDS011;2425;47.794;13.068;2024-03-25T14:19:53;3.17;;;2.97;;
4821;SDS011;2425;47.794;13.068;2024-03-25T14:22:19;4.40;;;3.23;;
4821;SDS011;2425;47.794;13.068;2024-03-25T14:24:44;4.20;;;2.57;;
4821;SDS011;2425;47.794;13.068;2024-03-25T14:27:10;2.40;;;2.23;;
4821;SDS011;2425;47.794;13.068;2024-03-25T14:29:36;2.80;;;2.40;;
4821;SDS011;2425;47.794;13.068;2024-03-25T14:32:02;4.73;;;2.80;;
4821;SDS011;2425;47.794;13.068;2024-03-25T14:34:29;5.53;;;2.70;;
4821;SDS011;2425;47.794;13.068;2024-03-25T14:36:55;3.20;;;2.33;;
4821;SDS011;2425;47.794;13.068;2024-03-25T14:39:22;2.47;;;2.37;;
4821;SDS011;2425;47.794;13.068;2024-03-25T14:41:47;2.63;;;2.33;;
4821;SDS011;2425;47.794;13.068;2024-03-25T14:44:13;6.00;;;2.47;;
4821;SDS011;2425;47.794;13.068;2024-03-25T14:46:39;2.70;;;2.50;;
4821;SDS011;2425;47.794;13.068;2024-03-25T14:49:05;2.60;;;2.40;;
4821;SDS011;2425;47.794;13.068;2024-03-25T14:51:32;2.20;;;2.10;;
4821;SDS011;2425;47.794;13.068;2024-03-25T14:53:58;2.20;;;2.10;;
4821;SDS011;2425;47.794;13.068;2024-03-25T14:56:23;2.47;;;2.30;;
4821;SDS011;2425;47.794;13.068;2024-03-25T14:58:49;2.67;;;2.47;;
4821;SDS011;2425;47.794;13.068;2024-03-25T15:01:15;3.00;;;2.20;;